TAP23L LPPT-LPMA
Flight info
| Callsign | TAP23L |
|---|---|
| Flight time | N/A |
| Altitude | 33000 |
| Route | ULVOT1S ULVOT DCT GALPA DCT RAKUN RAKUN1P |
| Aircraft | A321/M-SDE3FGHIRWY/LB1 |
Departure
| Time | 2026-05-01 13:13 |
|---|---|
| Airport | Lisbon Humberto Delgado Airport (LPPT) |
Arrival
| Time | N/A |
|---|---|
| Airport | Cristiano Ronaldo International Airport (LPMA) |
| Time | Latitude | Longitude | Altitude | Speed | Heading |
|---|---|---|---|---|---|
| 2026-05-01 12:03 | 38.77250 | -9.13156 | 347 ft | 0 kts | 75° |
| 2026-05-01 12:59 | 38.77249 | -9.13161 | 355 ft | 3 kts | 74° |
| 2026-05-01 12:59 | 38.77239 | -9.13191 | 354 ft | 4 kts | 52° |
| 2026-05-01 12:59 | 38.77195 | -9.13222 | 355 ft | 4 kts | 358° |
| 2026-05-01 13:00 | 38.77178 | -9.13220 | 354 ft | 0 kts | 348° |
| 2026-05-01 13:07 | 38.78882 | -9.13436 | 356 ft | 17 kts | 9° |
| 2026-05-01 13:07 | 38.78992 | -9.13382 | 349 ft | 17 kts | 22° |
| 2026-05-01 13:07 | 38.79106 | -9.13321 | 353 ft | 18 kts | 23° |
| 2026-05-01 13:08 | 38.79225 | -9.13258 | 356 ft | 19 kts | 22° |
| 2026-05-01 13:08 | 38.79349 | -9.13192 | 351 ft | 20 kts | 23° |
| 2026-05-01 13:08 | 38.79479 | -9.13122 | 351 ft | 21 kts | 23° |
| 2026-05-01 13:08 | 38.79616 | -9.13048 | 354 ft | 22 kts | 23° |
| 2026-05-01 13:09 | 38.79736 | -9.12984 | 352 ft | 17 kts | 22° |
| 2026-05-01 13:09 | 38.79774 | -9.12910 | 350 ft | 10 kts | 99° |
| 2026-05-01 13:09 | 38.79760 | -9.12860 | 354 ft | 0 kts | 112° |
| 2026-05-01 13:10 | 38.79760 | -9.12858 | 353 ft | 2 kts | 112° |
| 2026-05-01 13:10 | 38.79753 | -9.12838 | 355 ft | 3 kts | 112° |
| 2026-05-01 13:10 | 38.79744 | -9.12811 | 355 ft | 5 kts | 113° |
| 2026-05-01 13:10 | 38.79711 | -9.12759 | 361 ft | 11 kts | 172° |
| 2026-05-01 13:11 | 38.79635 | -9.12791 | 359 ft | 0 kts | 203° |
| 2026-05-01 13:12 | 38.79584 | -9.12819 | 354 ft | 32 kts | 202° |
| 2026-05-01 13:12 | 38.79158 | -9.13047 | 356 ft | 98 kts | 202° |
| 2026-05-01 13:13 | 38.78362 | -9.13467 | 353 ft | 147 kts | 202° |
| 2026-05-01 13:13 | 38.77304 | -9.14030 | 474 ft | 174 kts | 203° |
| 2026-05-01 13:13 | 38.76175 | -9.14632 | 1059 ft | 177 kts | 205° |
| 2026-05-01 13:13 | 38.75033 | -9.15238 | 1735 ft | 181 kts | 204° |
| 2026-05-01 13:14 | 38.73818 | -9.15881 | 2062 ft | 197 kts | 203° |
| 2026-05-01 13:14 | 38.72481 | -9.16567 | 2293 ft | 219 kts | 203° |
| 2026-05-01 13:14 | 38.70977 | -9.17353 | 2520 ft | 247 kts | 203° |
| 2026-05-01 13:14 | 38.69334 | -9.18230 | 3155 ft | 258 kts | 203° |
| 2026-05-01 13:15 | 38.67669 | -9.19136 | 3880 ft | 261 kts | 203° |
| 2026-05-01 13:15 | 38.66012 | -9.20038 | 4633 ft | 264 kts | 203° |
| 2026-05-01 13:15 | 38.64313 | -9.20953 | 5404 ft | 265 kts | 201° |
| 2026-05-01 13:15 | 38.62551 | -9.21633 | 6155 ft | 265 kts | 195° |
| 2026-05-01 13:16 | 38.60767 | -9.22255 | 6883 ft | 266 kts | 195° |
| 2026-05-01 13:16 | 38.58972 | -9.22889 | 7602 ft | 268 kts | 196° |
| 2026-05-01 13:16 | 38.57166 | -9.23528 | 8363 ft | 270 kts | 196° |
| 2026-05-01 13:17 | 38.52009 | -9.26500 | 10410 ft | 278 kts | 206° |
| 2026-05-01 13:17 | 38.50208 | -9.27635 | 10533 ft | 297 kts | 206° |
| 2026-05-01 13:18 | 38.46273 | -9.30114 | 10796 ft | 332 kts | 206° |
| 2026-05-01 13:18 | 38.44172 | -9.31441 | 11177 ft | 340 kts | 206° |
| 2026-05-01 13:18 | 38.42046 | -9.32780 | 11711 ft | 342 kts | 206° |
| 2026-05-01 13:18 | 38.39908 | -9.34125 | 12269 ft | 344 kts | 206° |
| 2026-05-01 13:19 | 38.37755 | -9.35478 | 12839 ft | 346 kts | 206° |
| 2026-05-01 13:19 | 38.35590 | -9.36838 | 13393 ft | 348 kts | 206° |
| 2026-05-01 13:19 | 38.31220 | -9.39584 | 14426 ft | 352 kts | 206° |
| 2026-05-01 13:20 | 38.29021 | -9.40966 | 14887 ft | 354 kts | 207° |
| 2026-05-01 13:20 | 38.26805 | -9.42354 | 15358 ft | 356 kts | 207° |
| 2026-05-01 13:20 | 38.24573 | -9.43749 | 15802 ft | 358 kts | 207° |
| 2026-05-01 13:21 | 38.20084 | -9.46562 | 16696 ft | 362 kts | 207° |
| 2026-05-01 13:21 | 38.17820 | -9.47981 | 17116 ft | 364 kts | 207° |
| 2026-05-01 13:21 | 38.15576 | -9.49385 | 17528 ft | 365 kts | 207° |
| 2026-05-01 13:21 | 38.13288 | -9.50813 | 17920 ft | 367 kts | 208° |
| 2026-05-01 13:22 | 38.10987 | -9.52248 | 18307 ft | 369 kts | 208° |
| 2026-05-01 13:22 | 38.08677 | -9.53685 | 18648 ft | 371 kts | 208° |
| 2026-05-01 13:22 | 38.06350 | -9.55131 | 18966 ft | 373 kts | 208° |
| 2026-05-01 13:22 | 38.04018 | -9.56578 | 19290 ft | 374 kts | 208° |
| 2026-05-01 13:23 | 38.01674 | -9.58037 | 19611 ft | 376 kts | 208° |
| 2026-05-01 13:23 | 37.99437 | -9.59728 | 19926 ft | 375 kts | 218° |
| 2026-05-01 13:23 | 37.97426 | -9.61836 | 20245 ft | 375 kts | 222° |
| 2026-05-01 13:23 | 37.95431 | -9.63982 | 20564 ft | 377 kts | 222° |
| 2026-05-01 13:24 | 37.93427 | -9.66121 | 20904 ft | 378 kts | 222° |
| 2026-05-01 13:24 | 37.91403 | -9.68270 | 21252 ft | 379 kts | 222° |
| 2026-05-01 13:24 | 37.89381 | -9.70415 | 21597 ft | 381 kts | 222° |
| 2026-05-01 13:25 | 37.85309 | -9.74747 | 22296 ft | 383 kts | 223° |
| 2026-05-01 13:25 | 37.83269 | -9.76921 | 22638 ft | 385 kts | 223° |
| 2026-05-01 13:25 | 37.81218 | -9.79109 | 22981 ft | 386 kts | 223° |
| 2026-05-01 13:25 | 37.79154 | -9.81306 | 23324 ft | 388 kts | 223° |
| 2026-05-01 13:26 | 37.77083 | -9.83501 | 23660 ft | 389 kts | 223° |
| 2026-05-01 13:26 | 37.75005 | -9.85698 | 23942 ft | 391 kts | 223° |
| 2026-05-01 13:26 | 37.72908 | -9.87913 | 24221 ft | 392 kts | 223° |
| 2026-05-01 13:26 | 37.70809 | -9.90130 | 24485 ft | 394 kts | 223° |
| 2026-05-01 13:27 | 37.68706 | -9.92351 | 24749 ft | 395 kts | 223° |
| 2026-05-01 13:27 | 37.66594 | -9.94581 | 25014 ft | 396 kts | 224° |
| 2026-05-01 13:27 | 37.62414 | -9.99131 | 25534 ft | 396 kts | 229° |
| 2026-05-01 13:28 | 37.58934 | -10.04500 | 26055 ft | 396 kts | 234° |
| 2026-05-01 13:28 | 37.57205 | -10.07231 | 26312 ft | 398 kts | 234° |
| 2026-05-01 13:29 | 37.53758 | -10.12654 | 26826 ft | 400 kts | 234° |
| 2026-05-01 13:29 | 37.50262 | -10.18144 | 27316 ft | 402 kts | 234° |
| 2026-05-01 13:30 | 37.43200 | -10.29194 | 28199 ft | 407 kts | 234° |
| 2026-05-01 13:31 | 37.39640 | -10.34747 | 28589 ft | 409 kts | 234° |
| 2026-05-01 13:31 | 37.34266 | -10.43131 | 29110 ft | 410 kts | 234° |
| 2026-05-01 13:32 | 37.30687 | -10.48693 | 29599 ft | 408 kts | 234° |
| 2026-05-01 13:33 | 37.25357 | -10.56973 | 30274 ft | 405 kts | 234° |
| 2026-05-01 13:33 | 37.21819 | -10.62463 | 30651 ft | 404 kts | 234° |
| 2026-05-01 13:34 | 37.18284 | -10.67933 | 31033 ft | 402 kts | 234° |
| 2026-05-01 13:34 | 37.14760 | -10.73367 | 31406 ft | 401 kts | 234° |
| 2026-05-01 13:35 | 37.11244 | -10.78785 | 31794 ft | 400 kts | 234° |
| 2026-05-01 13:35 | 37.09492 | -10.81482 | 31987 ft | 399 kts | 234° |
| 2026-05-01 13:35 | 37.05983 | -10.86868 | 32369 ft | 398 kts | 234° |
| 2026-05-01 13:36 | 37.04227 | -10.89558 | 32560 ft | 397 kts | 233° |
| 2026-05-01 13:36 | 37.02481 | -10.92234 | 32751 ft | 397 kts | 234° |
| 2026-05-01 13:36 | 36.99004 | -10.97582 | 33121 ft | 396 kts | 234° |
| 2026-05-01 13:37 | 36.96132 | -11.01988 | 33191 ft | 391 kts | 233° |
| 2026-05-01 13:37 | 36.92116 | -11.08123 | 33186 ft | 389 kts | 233° |
| 2026-05-01 13:38 | 36.86970 | -11.15959 | 33185 ft | 389 kts | 233° |
| 2026-05-01 13:39 | 36.83533 | -11.21191 | 33184 ft | 389 kts | 233° |
| 2026-05-01 13:39 | 36.80097 | -11.26415 | 33183 ft | 389 kts | 233° |
| 2026-05-01 13:40 | 36.76677 | -11.31607 | 33181 ft | 389 kts | 233° |
| 2026-05-01 13:40 | 36.73239 | -11.36825 | 33177 ft | 389 kts | 233° |
| 2026-05-01 13:41 | 36.69795 | -11.42037 | 33175 ft | 390 kts | 233° |
| 2026-05-01 13:41 | 36.66336 | -11.47239 | 33173 ft | 390 kts | 233° |
| 2026-05-01 13:42 | 36.62890 | -11.52447 | 33175 ft | 390 kts | 233° |
| 2026-05-01 13:42 | 36.59431 | -11.57666 | 33176 ft | 391 kts | 233° |
| 2026-05-01 13:43 | 36.55961 | -11.62868 | 33180 ft | 391 kts | 233° |
| 2026-05-01 13:43 | 36.52494 | -11.68079 | 33177 ft | 391 kts | 233° |
| 2026-05-01 13:44 | 36.49032 | -11.73284 | 33179 ft | 391 kts | 233° |
| 2026-05-01 13:44 | 36.45579 | -11.78442 | 33181 ft | 391 kts | 233° |
| 2026-05-01 13:45 | 36.42100 | -11.83627 | 33179 ft | 391 kts | 233° |
| 2026-05-01 13:45 | 36.38621 | -11.88814 | 33177 ft | 391 kts | 233° |
| 2026-05-01 13:46 | 36.35146 | -11.93991 | 33174 ft | 391 kts | 233° |
| 2026-05-01 13:46 | 36.31667 | -11.99172 | 33174 ft | 391 kts | 233° |
| 2026-05-01 13:47 | 36.28180 | -12.04350 | 33174 ft | 391 kts | 233° |
| 2026-05-01 13:47 | 36.25282 | -12.08655 | 33168 ft | 392 kts | 233° |
| 2026-05-01 13:48 | 36.21788 | -12.13830 | 33171 ft | 392 kts | 233° |
| 2026-05-01 13:48 | 36.18285 | -12.19005 | 33172 ft | 392 kts | 233° |
| 2026-05-01 13:49 | 36.14781 | -12.24170 | 33177 ft | 392 kts | 233° |
| 2026-05-01 13:49 | 36.11286 | -12.29330 | 33179 ft | 392 kts | 233° |
| 2026-05-01 13:50 | 36.07776 | -12.34486 | 33182 ft | 392 kts | 233° |
| 2026-05-01 13:50 | 36.04274 | -12.39643 | 33173 ft | 391 kts | 233° |
| 2026-05-01 13:51 | 36.00773 | -12.44784 | 33176 ft | 391 kts | 233° |
| 2026-05-01 13:51 | 35.97288 | -12.49891 | 33178 ft | 391 kts | 233° |
| 2026-05-01 13:52 | 35.93782 | -12.55019 | 33176 ft | 391 kts | 233° |
| 2026-05-01 13:52 | 35.90265 | -12.60150 | 33187 ft | 391 kts | 233° |
| 2026-05-01 13:53 | 35.86751 | -12.65268 | 33178 ft | 391 kts | 233° |
| 2026-05-01 13:53 | 35.81479 | -12.72947 | 33174 ft | 391 kts | 233° |
| 2026-05-01 13:54 | 35.77956 | -12.78061 | 33174 ft | 391 kts | 233° |
| 2026-05-01 13:54 | 35.74441 | -12.83164 | 33178 ft | 391 kts | 233° |
| 2026-05-01 13:55 | 35.70920 | -12.88268 | 33177 ft | 391 kts | 233° |
| 2026-05-01 13:55 | 35.67423 | -12.93332 | 33172 ft | 391 kts | 233° |
| 2026-05-01 13:56 | 35.63899 | -12.98418 | 33173 ft | 391 kts | 233° |
| 2026-05-01 13:56 | 35.60373 | -13.03506 | 33176 ft | 391 kts | 233° |
| 2026-05-01 13:57 | 35.56844 | -13.08583 | 33171 ft | 390 kts | 233° |
| 2026-05-01 13:57 | 35.53319 | -13.13646 | 33165 ft | 390 kts | 233° |
| 2026-05-01 13:58 | 35.49793 | -13.18705 | 33169 ft | 390 kts | 233° |
| 2026-05-01 13:58 | 35.46276 | -13.23760 | 33168 ft | 389 kts | 233° |
| 2026-05-01 13:59 | 35.42750 | -13.28808 | 33164 ft | 389 kts | 233° |
| 2026-05-01 13:59 | 35.39243 | -13.33813 | 33166 ft | 389 kts | 233° |
| 2026-05-01 14:00 | 35.35718 | -13.38845 | 33170 ft | 389 kts | 233° |
| 2026-05-01 14:00 | 35.32191 | -13.43874 | 33166 ft | 389 kts | 233° |
| 2026-05-01 14:01 | 35.28669 | -13.48889 | 33163 ft | 388 kts | 233° |
| 2026-05-01 14:01 | 35.25140 | -13.53900 | 33162 ft | 388 kts | 233° |
| 2026-05-01 14:02 | 35.21612 | -13.58892 | 33157 ft | 388 kts | 233° |
| 2026-05-01 14:02 | 35.18091 | -13.63895 | 33156 ft | 387 kts | 233° |
| 2026-05-01 14:03 | 35.14576 | -13.68884 | 33170 ft | 388 kts | 233° |
| 2026-05-01 14:03 | 35.11075 | -13.73843 | 33163 ft | 387 kts | 233° |
| 2026-05-01 14:04 | 35.07550 | -13.78813 | 33161 ft | 387 kts | 232° |
| 2026-05-01 14:04 | 35.04009 | -13.83780 | 33160 ft | 387 kts | 233° |
| 2026-05-01 14:05 | 35.00477 | -13.88748 | 33160 ft | 387 kts | 233° |
| 2026-05-01 14:05 | 34.96945 | -13.93711 | 33159 ft | 387 kts | 233° |
| 2026-05-01 14:06 | 34.93418 | -13.98667 | 33159 ft | 387 kts | 233° |
| 2026-05-01 14:06 | 34.89903 | -14.03594 | 33156 ft | 387 kts | 233° |
| 2026-05-01 14:07 | 34.86370 | -14.08540 | 33155 ft | 387 kts | 233° |
| 2026-05-01 14:08 | 34.81067 | -14.15946 | 33156 ft | 387 kts | 233° |
| 2026-05-01 14:08 | 34.77529 | -14.20869 | 33150 ft | 387 kts | 233° |
| 2026-05-01 14:09 | 34.73992 | -14.25802 | 33152 ft | 387 kts | 233° |
| 2026-05-01 14:09 | 34.70444 | -14.30727 | 33149 ft | 387 kts | 233° |
| 2026-05-01 14:10 | 34.66923 | -14.35605 | 33151 ft | 387 kts | 233° |
| 2026-05-01 14:10 | 34.63376 | -14.40517 | 33148 ft | 387 kts | 233° |
| 2026-05-01 14:11 | 34.59825 | -14.45432 | 33146 ft | 387 kts | 233° |
| 2026-05-01 14:11 | 34.54501 | -14.52797 | 33141 ft | 387 kts | 233° |
| 2026-05-01 14:12 | 34.50949 | -14.57701 | 33141 ft | 387 kts | 232° |
| 2026-05-01 14:12 | 34.47413 | -14.62563 | 33141 ft | 387 kts | 232° |
| 2026-05-01 14:13 | 34.44433 | -14.66660 | 33140 ft | 387 kts | 232° |
| 2026-05-01 14:13 | 34.40289 | -14.72357 | 33140 ft | 387 kts | 232° |
| 2026-05-01 14:14 | 34.36644 | -14.77170 | 33142 ft | 389 kts | 231° |
| 2026-05-01 14:14 | 34.32875 | -14.81871 | 33141 ft | 389 kts | 230° |
| 2026-05-01 14:15 | 34.29123 | -14.86534 | 33141 ft | 389 kts | 230° |
| 2026-05-01 14:15 | 34.25382 | -14.91257 | 33140 ft | 389 kts | 231° |
| 2026-05-01 14:16 | 34.21643 | -14.95989 | 33145 ft | 389 kts | 231° |
| 2026-05-01 14:16 | 34.17899 | -15.00711 | 33142 ft | 389 kts | 231° |
| 2026-05-01 14:17 | 34.14142 | -15.05439 | 33143 ft | 390 kts | 230° |
| 2026-05-01 14:17 | 34.10381 | -15.10156 | 33143 ft | 390 kts | 230° |
| 2026-05-01 14:18 | 34.06612 | -15.14873 | 33141 ft | 391 kts | 230° |
| 2026-05-01 14:18 | 34.03478 | -15.18802 | 33138 ft | 391 kts | 230° |
| 2026-05-01 14:19 | 33.99092 | -15.24292 | 33142 ft | 391 kts | 230° |
| 2026-05-01 14:19 | 33.95315 | -15.29017 | 33144 ft | 392 kts | 230° |
| 2026-05-01 14:20 | 33.89639 | -15.36106 | 32978 ft | 393 kts | 230° |
| 2026-05-01 14:20 | 33.87739 | -15.38475 | 32711 ft | 393 kts | 230° |
| 2026-05-01 14:21 | 33.85833 | -15.40850 | 32453 ft | 394 kts | 230° |
| 2026-05-01 14:21 | 33.83924 | -15.43223 | 32209 ft | 396 kts | 230° |
| 2026-05-01 14:21 | 33.82009 | -15.45602 | 31966 ft | 397 kts | 230° |
| 2026-05-01 14:22 | 33.78159 | -15.50384 | 31458 ft | 399 kts | 230° |
| 2026-05-01 14:22 | 33.76221 | -15.52785 | 31217 ft | 400 kts | 230° |
| 2026-05-01 14:22 | 33.74306 | -15.55156 | 30978 ft | 401 kts | 230° |
| 2026-05-01 14:22 | 33.72365 | -15.57556 | 30621 ft | 398 kts | 230° |
| 2026-05-01 14:23 | 33.70450 | -15.59920 | 30072 ft | 393 kts | 230° |
| 2026-05-01 14:23 | 33.68552 | -15.62261 | 29520 ft | 388 kts | 230° |
| 2026-05-01 14:23 | 33.66683 | -15.64569 | 29020 ft | 382 kts | 230° |
| 2026-05-01 14:23 | 33.64850 | -15.66835 | 28527 ft | 376 kts | 230° |
| 2026-05-01 14:24 | 33.63042 | -15.69066 | 28041 ft | 370 kts | 230° |
| 2026-05-01 14:24 | 33.61259 | -15.71260 | 27577 ft | 364 kts | 230° |
| 2026-05-01 14:24 | 33.59502 | -15.73424 | 27099 ft | 359 kts | 230° |
| 2026-05-01 14:24 | 33.57765 | -15.75563 | 26623 ft | 356 kts | 230° |
| 2026-05-01 14:25 | 33.56043 | -15.77682 | 26099 ft | 353 kts | 230° |
| 2026-05-01 14:25 | 33.54329 | -15.79773 | 25590 ft | 351 kts | 229° |
| 2026-05-01 14:25 | 33.52622 | -15.81797 | 25088 ft | 348 kts | 228° |
| 2026-05-01 14:25 | 33.50892 | -15.83817 | 24590 ft | 346 kts | 228° |
| 2026-05-01 14:26 | 33.49171 | -15.85816 | 24097 ft | 344 kts | 227° |
| 2026-05-01 14:26 | 33.45765 | -15.89782 | 23114 ft | 339 kts | 227° |
| 2026-05-01 14:26 | 33.44079 | -15.91751 | 22655 ft | 337 kts | 227° |
| 2026-05-01 14:27 | 33.42405 | -15.93705 | 22237 ft | 335 kts | 227° |
| 2026-05-01 14:27 | 33.40741 | -15.95648 | 21822 ft | 333 kts | 227° |
| 2026-05-01 14:27 | 33.39091 | -15.97577 | 21416 ft | 331 kts | 227° |
| 2026-05-01 14:28 | 33.35818 | -16.01405 | 20610 ft | 327 kts | 227° |
| 2026-05-01 14:28 | 33.34195 | -16.03297 | 20194 ft | 325 kts | 227° |
| 2026-05-01 14:28 | 33.32579 | -16.05178 | 19797 ft | 323 kts | 227° |
| 2026-05-01 14:28 | 33.30972 | -16.07047 | 19388 ft | 321 kts | 227° |
| 2026-05-01 14:29 | 33.29371 | -16.08911 | 18977 ft | 320 kts | 227° |
| 2026-05-01 14:29 | 33.27783 | -16.10761 | 18561 ft | 318 kts | 227° |
| 2026-05-01 14:30 | 33.23064 | -16.16248 | 17256 ft | 314 kts | 227° |
| 2026-05-01 14:30 | 33.21504 | -16.18059 | 16821 ft | 313 kts | 227° |
| 2026-05-01 14:30 | 33.19947 | -16.19866 | 16418 ft | 311 kts | 227° |
| 2026-05-01 14:31 | 33.16849 | -16.23464 | 15586 ft | 310 kts | 227° |
| 2026-05-01 14:31 | 33.15310 | -16.25251 | 15170 ft | 309 kts | 227° |
| 2026-05-01 14:31 | 33.13768 | -16.27037 | 14751 ft | 308 kts | 227° |
| 2026-05-01 14:31 | 33.12235 | -16.28812 | 14342 ft | 307 kts | 227° |
| 2026-05-01 14:32 | 33.10706 | -16.30581 | 13927 ft | 306 kts | 227° |
| 2026-05-01 14:32 | 33.09181 | -16.32347 | 13472 ft | 305 kts | 227° |
| 2026-05-01 14:32 | 33.07663 | -16.34102 | 13048 ft | 304 kts | 226° |
| 2026-05-01 14:32 | 33.06148 | -16.35854 | 12622 ft | 302 kts | 226° |
| 2026-05-01 14:33 | 33.04642 | -16.37591 | 12204 ft | 301 kts | 226° |
| 2026-05-01 14:33 | 33.03136 | -16.39326 | 11794 ft | 300 kts | 226° |
| 2026-05-01 14:33 | 33.01642 | -16.41044 | 11369 ft | 298 kts | 226° |
| 2026-05-01 14:33 | 33.00154 | -16.42756 | 10947 ft | 296 kts | 226° |
| 2026-05-01 14:34 | 32.98682 | -16.44451 | 10670 ft | 288 kts | 226° |
| 2026-05-01 14:34 | 32.97272 | -16.46076 | 10500 ft | 278 kts | 226° |
| 2026-05-01 14:34 | 32.95899 | -16.47660 | 10237 ft | 273 kts | 226° |
| 2026-05-01 14:34 | 32.94541 | -16.49229 | 10056 ft | 271 kts | 226° |
| 2026-05-01 14:35 | 32.93188 | -16.50789 | 9919 ft | 271 kts | 225° |
| 2026-05-01 14:35 | 32.91837 | -16.52309 | 9800 ft | 270 kts | 224° |
| 2026-05-01 14:35 | 32.90438 | -16.53815 | 9408 ft | 274 kts | 223° |
| 2026-05-01 14:35 | 32.89018 | -16.55322 | 9049 ft | 270 kts | 223° |
| 2026-05-01 14:36 | 32.87649 | -16.56769 | 8881 ft | 255 kts | 223° |
| 2026-05-01 14:36 | 32.86358 | -16.58133 | 8379 ft | 244 kts | 223° |
| 2026-05-01 14:36 | 32.85091 | -16.59475 | 8051 ft | 240 kts | 223° |
| 2026-05-01 14:36 | 32.83854 | -16.60785 | 7815 ft | 239 kts | 223° |
| 2026-05-01 14:37 | 32.82612 | -16.62090 | 7428 ft | 238 kts | 219° |
| 2026-05-01 14:37 | 32.81226 | -16.63170 | 7047 ft | 238 kts | 208° |
| 2026-05-01 14:37 | 32.79690 | -16.63912 | 6651 ft | 239 kts | 201° |
| 2026-05-01 14:37 | 32.78129 | -16.64540 | 6284 ft | 237 kts | 201° |
| 2026-05-01 14:38 | 32.76562 | -16.65174 | 5894 ft | 236 kts | 201° |
| 2026-05-01 14:38 | 32.75002 | -16.65807 | 5490 ft | 237 kts | 201° |
| 2026-05-01 14:38 | 32.73439 | -16.66444 | 5084 ft | 238 kts | 201° |
| 2026-05-01 14:38 | 32.71876 | -16.67078 | 4698 ft | 237 kts | 200° |
| 2026-05-01 14:39 | 32.70312 | -16.67712 | 4024 ft | 236 kts | 200° |
| 2026-05-01 14:39 | 32.68812 | -16.68322 | 3883 ft | 219 kts | 200° |
| 2026-05-01 14:39 | 32.67408 | -16.68887 | 3791 ft | 210 kts | 200° |
| 2026-05-01 14:39 | 32.66028 | -16.69445 | 3689 ft | 209 kts | 200° |
| 2026-05-01 14:40 | 32.64674 | -16.69996 | 3602 ft | 208 kts | 201° |
| 2026-05-01 14:40 | 32.63350 | -16.70635 | 3425 ft | 202 kts | 211° |
| 2026-05-01 14:40 | 32.62252 | -16.71638 | 2918 ft | 196 kts | 228° |
| 2026-05-01 14:40 | 32.61519 | -16.72880 | 2746 ft | 174 kts | 244° |
| 2026-05-01 14:41 | 32.61096 | -16.74148 | 2856 ft | 160 kts | 254° |
| 2026-05-01 14:41 | 32.60928 | -16.75407 | 2923 ft | 151 kts | 266° |
| 2026-05-01 14:41 | 32.60965 | -16.76631 | 2948 ft | 148 kts | 275° |
| 2026-05-01 14:41 | 32.61239 | -16.77796 | 2989 ft | 148 kts | 290° |
| 2026-05-01 14:42 | 32.61729 | -16.78863 | 2985 ft | 149 kts | 302° |
| 2026-05-01 14:42 | 32.62473 | -16.79721 | 2921 ft | 151 kts | 323° |
| 2026-05-01 14:42 | 32.63449 | -16.80258 | 2584 ft | 157 kts | 338° |
| 2026-05-01 14:42 | 32.64532 | -16.80516 | 2184 ft | 160 kts | 349° |
| 2026-05-01 14:43 | 32.65640 | -16.80625 | 1755 ft | 161 kts | 356° |
| 2026-05-01 14:43 | 32.66757 | -16.80421 | 1330 ft | 169 kts | 14° |
| 2026-05-01 14:43 | 32.67807 | -16.79750 | 864 ft | 175 kts | 40° |
| 2026-05-01 14:43 | 32.68675 | -16.78757 | 481 ft | 171 kts | 49° |
| 2026-05-01 14:44 | 32.69480 | -16.77721 | 1052 ft | 176 kts | 50° |
| 2026-05-01 14:44 | 32.71237 | -16.75502 | 1917 ft | 196 kts | 49° |
| 2026-05-01 14:44 | 32.71793 | -16.74586 | 1982 ft | 210 kts | 59° |
| 2026-05-01 14:45 | 32.72428 | -16.72930 | 2118 ft | 233 kts | 73° |
| 2026-05-01 14:45 | 32.72700 | -16.69011 | 2936 ft | 244 kts | 99° |
| 2026-05-01 14:45 | 32.72303 | -16.67064 | 3004 ft | 242 kts | 112° |
| 2026-05-01 14:46 | 32.71573 | -16.65282 | 3007 ft | 239 kts | 124° |
| 2026-05-01 14:46 | 32.69312 | -16.62451 | 3013 ft | 235 kts | 148° |
| 2026-05-01 14:46 | 32.67891 | -16.61518 | 3013 ft | 233 kts | 160° |
| 2026-05-01 14:47 | 32.66349 | -16.60948 | 3016 ft | 231 kts | 171° |
| 2026-05-01 14:47 | 32.64781 | -16.60758 | 3017 ft | 229 kts | 183° |
| 2026-05-01 14:47 | 32.63204 | -16.60933 | 3015 ft | 227 kts | 193° |
| 2026-05-01 14:48 | 32.60321 | -16.62343 | 3016 ft | 224 kts | 216° |
| 2026-05-01 14:48 | 32.59114 | -16.63503 | 3016 ft | 223 kts | 226° |
| 2026-05-01 14:48 | 32.57127 | -16.66327 | 3014 ft | 223 kts | 232° |
| 2026-05-01 14:49 | 32.55168 | -16.69176 | 3017 ft | 222 kts | 231° |
| 2026-05-01 14:49 | 32.53211 | -16.72020 | 3018 ft | 223 kts | 231° |
| 2026-05-01 14:50 | 32.51582 | -16.74390 | 3017 ft | 223 kts | 231° |
| 2026-05-01 14:50 | 32.49300 | -16.77701 | 3021 ft | 223 kts | 231° |
| 2026-05-01 14:51 | 32.48317 | -16.79127 | 3021 ft | 223 kts | 231° |
| 2026-05-01 14:51 | 32.46699 | -16.82196 | 3021 ft | 222 kts | 263° |
| 2026-05-01 14:52 | 32.48039 | -16.85318 | 3028 ft | 231 kts | 331° |
| 2026-05-01 14:52 | 32.49618 | -16.85672 | 3025 ft | 238 kts | 7° |
| 2026-05-01 14:52 | 32.51882 | -16.83071 | 3025 ft | 245 kts | 79° |
| 2026-05-01 14:53 | 32.52208 | -16.81079 | 3020 ft | 246 kts | 77° |
| 2026-05-01 14:53 | 32.52918 | -16.79247 | 3020 ft | 246 kts | 51° |
| 2026-05-01 14:53 | 32.54190 | -16.77911 | 3018 ft | 244 kts | 27° |
| 2026-05-01 14:53 | 32.55687 | -16.77022 | 3016 ft | 245 kts | 24° |
| 2026-05-01 14:54 | 32.57225 | -16.76112 | 3012 ft | 244 kts | 25° |
| 2026-05-01 14:54 | 32.58744 | -16.75200 | 3012 ft | 244 kts | 25° |
| 2026-05-01 14:54 | 32.60237 | -16.74304 | 3012 ft | 244 kts | 25° |
| 2026-05-01 14:54 | 32.61749 | -16.73397 | 3009 ft | 244 kts | 24° |
| 2026-05-01 14:55 | 32.63262 | -16.72485 | 3011 ft | 243 kts | 25° |
| 2026-05-01 14:55 | 32.64770 | -16.71576 | 3007 ft | 243 kts | 25° |
| 2026-05-01 14:55 | 32.66280 | -16.70668 | 3007 ft | 243 kts | 25° |
| 2026-05-01 14:55 | 32.67784 | -16.69764 | 3009 ft | 243 kts | 26° |
| 2026-05-01 14:56 | 32.69296 | -16.68861 | 3011 ft | 243 kts | 25° |
| 2026-05-01 14:56 | 32.70799 | -16.67961 | 3005 ft | 242 kts | 25° |
| 2026-05-01 14:56 | 32.72303 | -16.67057 | 3010 ft | 242 kts | 25° |
| 2026-05-01 14:56 | 32.73802 | -16.66155 | 3006 ft | 241 kts | 25° |
| 2026-05-01 14:57 | 32.75301 | -16.65255 | 3013 ft | 241 kts | 26° |
| 2026-05-01 14:57 | 32.78305 | -16.63468 | 3015 ft | 241 kts | 25° |
| 2026-05-01 14:57 | 32.79807 | -16.62584 | 3017 ft | 241 kts | 26° |
| 2026-05-01 14:58 | 32.81287 | -16.61718 | 3016 ft | 240 kts | 25° |
| 2026-05-01 14:58 | 32.82788 | -16.60840 | 3020 ft | 240 kts | 25° |
| 2026-05-01 14:58 | 32.84288 | -16.59983 | 3020 ft | 239 kts | 20° |
| 2026-05-01 14:58 | 32.85911 | -16.59645 | 3020 ft | 238 kts | 360° |
| 2026-05-01 14:59 | 32.87501 | -16.60034 | 3024 ft | 234 kts | 331° |
| 2026-05-01 14:59 | 32.88735 | -16.61253 | 3015 ft | 231 kts | 304° |
| 2026-05-01 14:59 | 32.89367 | -16.62972 | 2729 ft | 227 kts | 277° |
| 2026-05-01 14:59 | 32.89263 | -16.64799 | 2498 ft | 216 kts | 251° |
| 2026-05-01 15:00 | 32.87469 | -16.67293 | 2184 ft | 191 kts | 205° |
| 2026-05-01 15:00 | 32.86228 | -16.67671 | 2058 ft | 180 kts | 182° |
| 2026-05-01 15:00 | 32.85052 | -16.67341 | 1914 ft | 172 kts | 151° |
| 2026-05-01 15:01 | 32.84054 | -16.66622 | 1772 ft | 164 kts | 162° |
| 2026-05-01 15:01 | 32.82988 | -16.66725 | 1624 ft | 149 kts | 202° |
| 2026-05-01 15:01 | 32.82034 | -16.67118 | 1425 ft | 139 kts | 199° |
| 2026-05-01 15:01 | 32.81153 | -16.67467 | 1300 ft | 129 kts | 199° |
| 2026-05-01 15:02 | 32.80279 | -16.67826 | 1202 ft | 152 kts | 201° |
| 2026-05-01 15:02 | 32.79562 | -16.68141 | 1255 ft | 179 kts | 201° |
| 2026-05-01 15:02 | 32.77931 | -16.68841 | 1371 ft | 196 kts | 201° |
| 2026-05-01 15:02 | 32.76588 | -16.69407 | 1473 ft | 215 kts | 200° |
| 2026-05-01 15:03 | 32.75088 | -16.69780 | 1804 ft | 225 kts | 183° |
| 2026-05-01 15:03 | 32.73514 | -16.69832 | 2341 ft | 227 kts | 184° |
| 2026-05-01 15:03 | 32.71932 | -16.69889 | 2841 ft | 229 kts | 184° |
| 2026-05-01 15:03 | 32.70349 | -16.69945 | 2819 ft | 221 kts | 184° |
| 2026-05-01 15:04 | 32.68831 | -16.70000 | 2266 ft | 218 kts | 184° |
| 2026-05-01 15:04 | 32.67368 | -16.70055 | 2021 ft | 207 kts | 184° |
| 2026-05-01 15:04 | 32.66008 | -16.70106 | 2003 ft | 182 kts | 184° |
| 2026-05-01 15:04 | 32.64812 | -16.70153 | 2008 ft | 165 kts | 186° |
| 2026-05-01 15:05 | 32.63756 | -16.70428 | 2016 ft | 149 kts | 203° |